sensor_id;sensor_type;location;lat;lon;timestamp;temperature;humidity
22002;DHT22;11165;51.278;12.398;2022-10-16T00:01:47;15.60;99.90
22002;DHT22;11165;51.278;12.398;2022-10-16T00:04:13;15.50;99.90
22002;DHT22;11165;51.278;12.398;2022-10-16T00:06:39;15.50;99.90
22002;DHT22;11165;51.278;12.398;2022-10-16T00:09:05;15.40;99.90
22002;DHT22;11165;51.278;12.398;2022-10-16T00:11:33;15.40;99.90
22002;DHT22;11165;51.278;12.398;2022-10-16T00:14:00;15.40;99.90
22002;DHT22;11165;51.278;12.398;2022-10-16T00:16:27;15.40;99.90
22002;DHT22;11165;51.278;12.398;2022-10-16T00:18:53;15.40;99.90
22002;DHT22;11165;51.278;12.398;2022-10-16T00:21:20;15.40;99.90
22002;DHT22;11165;51.278;12.398;2022-10-16T00:23:49;15.40;99.90
22002;DHT22;11165;51.278;12.398;2022-10-16T00:26:16;15.40;99.90
22002;DHT22;11165;51.278;12.398;2022-10-16T00:28:42;15.50;99.90
22002;DHT22;11165;51.278;12.398;2022-10-16T00:31:10;15.60;99.90
22002;DHT22;11165;51.278;12.398;2022-10-16T00:33:37;15.60;99.90
22002;DHT22;11165;51.278;12.398;2022-10-16T00:36:04;15.70;99.90
22002;DHT22;11165;51.278;12.398;2022-10-16T00:38:30;15.70;99.90
22002;DHT22;11165;51.278;12.398;2022-10-16T00:40:56;15.70;99.90
22002;DHT22;11165;51.278;12.398;2022-10-16T00:43:37;15.80;99.90
22002;DHT22;11165;51.278;12.398;2022-10-16T00:46:09;15.80;99.90
22002;DHT22;11165;51.278;12.398;2022-10-16T00:48:36;15.90;99.90
22002;DHT22;11165;51.278;12.398;2022-10-16T00:51:02;16.00;99.90
22002;DHT22;11165;51.278;12.398;2022-10-16T00:53:28;16.00;99.90
22002;DHT22;11165;51.278;12.398;2022-10-16T00:55:53;16.00;99.90
22002;DHT22;11165;51.278;12.398;2022-10-16T00:58:20;16.10;99.90
22002;DHT22;11165;51.278;12.398;2022-10-16T01:00:45;16.20;99.90
22002;DHT22;11165;51.278;12.398;2022-10-16T01:03:35;16.20;99.90
22002;DHT22;11165;51.278;12.398;2022-10-16T01:06:24;16.30;99.90
22002;DHT22;11165;51.278;12.398;2022-10-16T01:14:18;16.30;99.90
22002;DHT22;11165;51.278;12.398;2022-10-16T01:16:52;16.30;99.90
22002;DHT22;11165;51.278;12.398;2022-10-16T01:20:00;16.30;99.90
22002;DHT22;11165;51.278;12.398;2022-10-16T01:22:37;16.20;99.90
22002;DHT22;11165;51.278;12.398;2022-10-16T01:25:07;16.20;99.90
22002;DHT22;11165;51.278;12.398;2022-10-16T01:27:36;16.20;99.90
22002;DHT22;11165;51.278;12.398;2022-10-16T01:30:26;16.20;99.90
22002;DHT22;11165;51.278;12.398;2022-10-16T01:33:01;16.20;99.90
22002;DHT22;11165;51.278;12.398;2022-10-16T01:35:34;16.20;99.90
22002;DHT22;11165;51.278;12.398;2022-10-16T01:38:18;16.20;99.90
22002;DHT22;11165;51.278;12.398;2022-10-16T01:40:49;16.00;99.90
22002;DHT22;11165;51.278;12.398;2022-10-16T01:43:19;16.00;99.90
22002;DHT22;11165;51.278;12.398;2022-10-16T01:45:46;16.00;99.90
22002;DHT22;11165;51.278;12.398;2022-10-16T01:48:16;16.00;99.90
22002;DHT22;11165;51.278;12.398;2022-10-16T01:50:44;16.00;99.90
22002;DHT22;11165;51.278;12.398;2022-10-16T01:53:15;15.80;99.90
22002;DHT22;11165;51.278;12.398;2022-10-16T01:55:45;15.90;99.90
22002;DHT22;11165;51.278;12.398;2022-10-16T01:58:13;15.80;99.90
22002;DHT22;11165;51.278;12.398;2022-10-16T02:00:43;15.80;99.90
22002;DHT22;11165;51.278;12.398;2022-10-16T02:03:11;15.80;99.90
22002;DHT22;11165;51.278;12.398;2022-10-16T02:08:05;15.70;99.90
22002;DHT22;11165;51.278;12.398;2022-10-16T02:10:31;15.50;99.90
22002;DHT22;11165;51.278;12.398;2022-10-16T02:13:03;15.40;99.90
22002;DHT22;11165;51.278;12.398;2022-10-16T02:15:31;15.60;99.90
22002;DHT22;11165;51.278;12.398;2022-10-16T02:17:56;15.60;99.90
22002;DHT22;11165;51.278;12.398;2022-10-16T02:20:25;15.60;99.90
22002;DHT22;11165;51.278;12.398;2022-10-16T02:22:53;15.70;99.90
22002;DHT22;11165;51.278;12.398;2022-10-16T02:25:27;15.80;99.90
22002;DHT22;11165;51.278;12.398;2022-10-16T02:28:00;15.80;99.90
22002;DHT22;11165;51.278;12.398;2022-10-16T02:30:34;15.80;99.90
22002;DHT22;11165;51.278;12.398;2022-10-16T02:33:02;15.70;99.90
22002;DHT22;11165;51.278;12.398;2022-10-16T02:35:30;15.70;99.90
22002;DHT22;11165;51.278;12.398;2022-10-16T02:37:56;15.60;99.90
22002;DHT22;11165;51.278;12.398;2022-10-16T02:40:23;15.50;99.90
22002;DHT22;11165;51.278;12.398;2022-10-16T02:42:53;15.50;99.90
22002;DHT22;11165;51.278;12.398;2022-10-16T02:45:19;15.40;99.90
22002;DHT22;11165;51.278;12.398;2022-10-16T02:47:45;15.30;99.90
22002;DHT22;11165;51.278;12.398;2022-10-16T02:50:11;15.30;99.90
22002;DHT22;11165;51.278;12.398;2022-10-16T02:52:36;15.20;99.90
22002;DHT22;11165;51.278;12.398;2022-10-16T02:55:02;15.20;99.90
22002;DHT22;11165;51.278;12.398;2022-10-16T02:57:27;15.30;99.90
22002;DHT22;11165;51.278;12.398;2022-10-16T02:59:53;15.20;99.90
22002;DHT22;11165;51.278;12.398;2022-10-16T03:02:18;15.20;99.90
22002;DHT22;11165;51.278;12.398;2022-10-16T03:04:44;15.20;99.90
22002;DHT22;11165;51.278;12.398;2022-10-16T03:07:10;15.20;99.90
22002;DHT22;11165;51.278;12.398;2022-10-16T03:09:35;15.30;99.90
22002;DHT22;11165;51.278;12.398;2022-10-16T03:12:01;15.20;99.90
22002;DHT22;11165;51.278;12.398;2022-10-16T03:14:26;15.20;99.90
22002;DHT22;11165;51.278;12.398;2022-10-16T03:16:52;15.10;99.90
22002;DHT22;11165;51.278;12.398;2022-10-16T03:19:17;15.10;99.90
22002;DHT22;11165;51.278;12.398;2022-10-16T03:21:43;15.10;99.90
22002;DHT22;11165;51.278;12.398;2022-10-16T03:24:09;15.10;99.90
22002;DHT22;11165;51.278;12.398;2022-10-16T03:26:35;15.10;99.90
22002;DHT22;11165;51.278;12.398;2022-10-16T03:29:01;15.20;99.90
22002;DHT22;11165;51.278;12.398;2022-10-16T03:31:31;15.10;99.90
22002;DHT22;11165;51.278;12.398;2022-10-16T03:33:57;15.10;99.90
22002;DHT22;11165;51.278;12.398;2022-10-16T03:36:22;15.10;99.90
22002;DHT22;11165;51.278;12.398;2022-10-16T03:38:48;15.20;99.90
22002;DHT22;11165;51.278;12.398;2022-10-16T03:41:13;15.20;99.90
22002;DHT22;11165;51.278;12.398;2022-10-16T03:43:39;15.10;99.90
22002;DHT22;11165;51.278;12.398;2022-10-16T03:46:04;15.00;99.90
22002;DHT22;11165;51.278;12.398;2022-10-16T03:48:30;15.00;99.90
22002;DHT22;11165;51.278;12.398;2022-10-16T03:50:57;15.00;99.90
22002;DHT22;11165;51.278;12.398;2022-10-16T03:53:23;15.00;99.90
22002;DHT22;11165;51.278;12.398;2022-10-16T03:55:49;15.10;99.90
22002;DHT22;11165;51.278;12.398;2022-10-16T03:58:14;15.00;99.90
22002;DHT22;11165;51.278;12.398;2022-10-16T04:00:41;15.10;99.90
22002;DHT22;11165;51.278;12.398;2022-10-16T04:03:07;15.10;99.90
22002;DHT22;11165;51.278;12.398;2022-10-16T04:05:33;15.00;99.90
22002;DHT22;11165;51.278;12.398;2022-10-16T04:07:58;15.00;99.90
22002;DHT22;11165;51.278;12.398;2022-10-16T04:10:23;15.00;99.90
22002;DHT22;11165;51.278;12.398;2022-10-16T04:12:49;14.90;99.90
22002;DHT22;11165;51.278;12.398;2022-10-16T04:15:15;14.90;99.90
22002;DHT22;11165;51.278;12.398;2022-10-16T04:17:40;14.90;99.90
22002;DHT22;11165;51.278;12.398;2022-10-16T04:20:06;15.10;99.90
22002;DHT22;11165;51.278;12.398;2022-10-16T04:22:32;15.00;99.90
22002;DHT22;11165;51.278;12.398;2022-10-16T04:24:57;15.00;99.90
22002;DHT22;11165;51.278;12.398;2022-10-16T04:27:23;14.90;99.90
22002;DHT22;11165;51.278;12.398;2022-10-16T04:29:48;15.00;99.90
22002;DHT22;11165;51.278;12.398;2022-10-16T04:32:14;15.00;99.90
22002;DHT22;11165;51.278;12.398;2022-10-16T04:34:39;15.00;99.90
22002;DHT22;11165;51.278;12.398;2022-10-16T04:37:05;14.70;99.90
22002;DHT22;11165;51.278;12.398;2022-10-16T04:39:31;14.50;99.90
22002;DHT22;11165;51.278;12.398;2022-10-16T04:41:56;14.60;99.90
22002;DHT22;11165;51.278;12.398;2022-10-16T04:44:22;14.70;99.90
22002;DHT22;11165;51.278;12.398;2022-10-16T04:46:49;14.50;99.90
22002;DHT22;11165;51.278;12.398;2022-10-16T04:49:15;14.40;99.90
22002;DHT22;11165;51.278;12.398;2022-10-16T04:51:40;14.30;99.90
22002;DHT22;11165;51.278;12.398;2022-10-16T04:54:06;14.50;99.90
22002;DHT22;11165;51.278;12.398;2022-10-16T04:56:31;14.40;99.90
22002;DHT22;11165;51.278;12.398;2022-10-16T04:58:57;14.50;99.90
22002;DHT22;11165;51.278;12.398;2022-10-16T05:01:23;14.40;99.90
22002;DHT22;11165;51.278;12.398;2022-10-16T05:03:48;14.00;99.90
22002;DHT22;11165;51.278;12.398;2022-10-16T05:06:14;14.00;99.90
22002;DHT22;11165;51.278;12.398;2022-10-16T05:08:39;14.00;99.90
22002;DHT22;11165;51.278;12.398;2022-10-16T05:11:05;14.00;99.90
22002;DHT22;11165;51.278;12.398;2022-10-16T05:13:30;14.10;99.90
22002;DHT22;11165;51.278;12.398;2022-10-16T05:15:56;14.10;99.90
22002;DHT22;11165;51.278;12.398;2022-10-16T05:18:22;14.10;99.90
22002;DHT22;11165;51.278;12.398;2022-10-16T05:20:47;14.10;99.90
22002;DHT22;11165;51.278;12.398;2022-10-16T05:23:13;14.20;99.90
22002;DHT22;11165;51.278;12.398;2022-10-16T05:25:38;14.30;99.90
22002;DHT22;11165;51.278;12.398;2022-10-16T05:28:04;14.30;99.90
22002;DHT22;11165;51.278;12.398;2022-10-16T05:30:29;14.30;99.90
22002;DHT22;11165;51.278;12.398;2022-10-16T05:32:55;14.20;99.90
22002;DHT22;11165;51.278;12.398;2022-10-16T05:35:21;14.00;99.90
22002;DHT22;11165;51.278;12.398;2022-10-16T05:37:47;13.90;99.90
22002;DHT22;11165;51.278;12.398;2022-10-16T05:40:13;13.80;99.90
22002;DHT22;11165;51.278;12.398;2022-10-16T05:42:40;14.00;99.90
22002;DHT22;11165;51.278;12.398;2022-10-16T05:45:06;14.20;99.90
22002;DHT22;11165;51.278;12.398;2022-10-16T05:47:33;14.20;99.90
22002;DHT22;11165;51.278;12.398;2022-10-16T05:49:59;14.20;99.90
22002;DHT22;11165;51.278;12.398;2022-10-16T05:52:24;14.30;99.90
22002;DHT22;11165;51.278;12.398;2022-10-16T05:54:50;14.30;99.90
22002;DHT22;11165;51.278;12.398;2022-10-16T05:57:15;14.30;99.90
22002;DHT22;11165;51.278;12.398;2022-10-16T05:59:41;14.20;99.90
22002;DHT22;11165;51.278;12.398;2022-10-16T06:02:11;14.20;99.90
22002;DHT22;11165;51.278;12.398;2022-10-16T06:04:37;14.20;99.90
22002;DHT22;11165;51.278;12.398;2022-10-16T06:07:03;14.00;99.90
22002;DHT22;11165;51.278;12.398;2022-10-16T06:09:28;14.10;99.90
22002;DHT22;11165;51.278;12.398;2022-10-16T06:11:54;14.10;99.90
22002;DHT22;11165;51.278;12.398;2022-10-16T06:14:19;14.20;99.90
22002;DHT22;11165;51.278;12.398;2022-10-16T06:16:45;14.20;99.90
22002;DHT22;11165;51.278;12.398;2022-10-16T06:19:10;14.30;99.90
22002;DHT22;11165;51.278;12.398;2022-10-16T06:21:36;14.50;99.90
22002;DHT22;11165;51.278;12.398;2022-10-16T06:24:02;14.60;99.90
22002;DHT22;11165;51.278;12.398;2022-10-16T06:26:29;14.70;99.90
22002;DHT22;11165;51.278;12.398;2022-10-16T06:28:56;14.80;99.90
22002;DHT22;11165;51.278;12.398;2022-10-16T06:31:22;14.80;99.90
22002;DHT22;11165;51.278;12.398;2022-10-16T06:33:51;15.00;99.90
22002;DHT22;11165;51.278;12.398;2022-10-16T06:36:17;15.10;99.90
22002;DHT22;11165;51.278;12.398;2022-10-16T06:38:43;15.10;99.90
22002;DHT22;11165;51.278;12.398;2022-10-16T06:41:18;15.10;99.90
22002;DHT22;11165;51.278;12.398;2022-10-16T06:43:43;15.20;99.90
22002;DHT22;11165;51.278;12.398;2022-10-16T06:46:11;15.40;99.90
22002;DHT22;11165;51.278;12.398;2022-10-16T06:48:37;15.40;99.90
22002;DHT22;11165;51.278;12.398;2022-10-16T06:51:09;15.50;99.90
22002;DHT22;11165;51.278;12.398;2022-10-16T06:53:37;15.30;99.90
22002;DHT22;11165;51.278;12.398;2022-10-16T06:56:15;15.30;99.90
22002;DHT22;11165;51.278;12.398;2022-10-16T06:58:42;15.40;99.90
22002;DHT22;11165;51.278;12.398;2022-10-16T07:01:08;15.50;99.90
22002;DHT22;11165;51.278;12.398;2022-10-16T07:03:38;15.40;99.90
22002;DHT22;11165;51.278;12.398;2022-10-16T07:06:06;15.50;99.90
22002;DHT22;11165;51.278;12.398;2022-10-16T07:08:33;15.50;99.90
22002;DHT22;11165;51.278;12.398;2022-10-16T07:11:03;15.50;99.90
22002;DHT22;11165;51.278;12.398;2022-10-16T07:13:29;15.70;99.90
22002;DHT22;11165;51.278;12.398;2022-10-16T07:15:55;15.80;99.90
22002;DHT22;11165;51.278;12.398;2022-10-16T07:18:20;16.00;99.90
22002;DHT22;11165;51.278;12.398;2022-10-16T07:20:46;16.10;99.90
22002;DHT22;11165;51.278;12.398;2022-10-16T07:23:11;16.20;99.90
22002;DHT22;11165;51.278;12.398;2022-10-16T07:25:37;16.20;99.90
22002;DHT22;11165;51.278;12.398;2022-10-16T07:28:03;16.40;99.90
22002;DHT22;11165;51.278;12.398;2022-10-16T07:30:28;16.50;99.90
22002;DHT22;11165;51.278;12.398;2022-10-16T07:32:54;16.70;99.90
22002;DHT22;11165;51.278;12.398;2022-10-16T07:35:19;16.80;99.90
22002;DHT22;11165;51.278;12.398;2022-10-16T07:37:46;16.80;99.90
22002;DHT22;11165;51.278;12.398;2022-10-16T07:40:11;16.90;99.90
22002;DHT22;11165;51.278;12.398;2022-10-16T07:42:37;16.90;99.90
22002;DHT22;11165;51.278;12.398;2022-10-16T07:45:03;17.10;99.90
22002;DHT22;11165;51.278;12.398;2022-10-16T07:47:29;17.20;99.90
22002;DHT22;11165;51.278;12.398;2022-10-16T07:49:54;17.40;99.90
22002;DHT22;11165;51.278;12.398;2022-10-16T07:52:20;17.60;99.90
22002;DHT22;11165;51.278;12.398;2022-10-16T07:54:45;17.70;99.90
22002;DHT22;11165;51.278;12.398;2022-10-16T07:57:11;17.70;99.90
22002;DHT22;11165;51.278;12.398;2022-10-16T07:59:37;17.80;99.90
22002;DHT22;11165;51.278;12.398;2022-10-16T08:02:02;17.90;99.90
22002;DHT22;11165;51.278;12.398;2022-10-16T08:04:28;18.40;99.90
22002;DHT22;11165;51.278;12.398;2022-10-16T08:06:53;19.10;99.90
22002;DHT22;11165;51.278;12.398;2022-10-16T08:09:19;19.60;99.90
22002;DHT22;11165;51.278;12.398;2022-10-16T08:11:45;19.80;99.90
22002;DHT22;11165;51.278;12.398;2022-10-16T08:14:10;19.90;99.90
22002;DHT22;11165;51.278;12.398;2022-10-16T08:16:36;19.40;99.90
22002;DHT22;11165;51.278;12.398;2022-10-16T08:19:02;19.30;99.90
22002;DHT22;11165;51.278;12.398;2022-10-16T08:21:27;19.50;99.90
22002;DHT22;11165;51.278;12.398;2022-10-16T08:23:53;19.30;99.90
22002;DHT22;11165;51.278;12.398;2022-10-16T08:26:20;19.30;99.90
22002;DHT22;11165;51.278;12.398;2022-10-16T08:28:45;19.10;99.90
22002;DHT22;11165;51.278;12.398;2022-10-16T08:31:15;18.90;99.90
22002;DHT22;11165;51.278;12.398;2022-10-16T08:33:43;18.90;99.90
22002;DHT22;11165;51.278;12.398;2022-10-16T08:36:11;18.90;99.90
22002;DHT22;11165;51.278;12.398;2022-10-16T08:38:37;18.80;99.90
22002;DHT22;11165;51.278;12.398;2022-10-16T08:46:47;18.90;99.90
22002;DHT22;11165;51.278;12.398;2022-10-16T08:49:15;18.90;99.90
22002;DHT22;11165;51.278;12.398;2022-10-16T08:51:41;19.10;99.90
22002;DHT22;11165;51.278;12.398;2022-10-16T08:54:26;19.10;99.90
22002;DHT22;11165;51.278;12.398;2022-10-16T08:56:57;19.20;99.90
22002;DHT22;11165;51.278;12.398;2022-10-16T08:59:26;19.10;99.90
22002;DHT22;11165;51.278;12.398;2022-10-16T09:01:52;19.00;99.90
22002;DHT22;11165;51.278;12.398;2022-10-16T09:04:46;19.10;99.90
22002;DHT22;11165;51.278;12.398;2022-10-16T09:15:25;18.90;99.90
22002;DHT22;11165;51.278;12.398;2022-10-16T09:23:27;19.00;99.90
22002;DHT22;11165;51.278;12.398;2022-10-16T09:25:54;19.10;99.90
22002;DHT22;11165;51.278;12.398;2022-10-16T09:28:20;19.00;99.90
22002;DHT22;11165;51.278;12.398;2022-10-16T09:30:46;19.10;99.90
22002;DHT22;11165;51.278;12.398;2022-10-16T09:33:14;19.00;99.90
22002;DHT22;11165;51.278;12.398;2022-10-16T09:35:47;19.00;99.90
22002;DHT22;11165;51.278;12.398;2022-10-16T09:38:26;19.10;99.90
22002;DHT22;11165;51.278;12.398;2022-10-16T09:40:52;19.20;99.90
22002;DHT22;11165;51.278;12.398;2022-10-16T09:45:54;19.50;99.90
22002;DHT22;11165;51.278;12.398;2022-10-16T09:48:21;19.50;99.90
22002;DHT22;11165;51.278;12.398;2022-10-16T09:50:56;19.30;99.90
22002;DHT22;11165;51.278;12.398;2022-10-16T09:53:22;19.10;99.90
22002;DHT22;11165;51.278;12.398;2022-10-16T09:55:52;19.10;99.90
22002;DHT22;11165;51.278;12.398;2022-10-16T09:58:21;19.20;99.90
22002;DHT22;11165;51.278;12.398;2022-10-16T10:00:50;19.30;99.90
22002;DHT22;11165;51.278;12.398;2022-10-16T10:03:37;19.60;99.90
22002;DHT22;11165;51.278;12.398;2022-10-16T10:06:20;19.60;99.90
22002;DHT22;11165;51.278;12.398;2022-10-16T10:11:39;19.80;99.90
22002;DHT22;11165;51.278;12.398;2022-10-16T10:14:35;19.80;99.90
22002;DHT22;11165;51.278;12.398;2022-10-16T10:22:39;19.60;99.90
22002;DHT22;11165;51.278;12.398;2022-10-16T10:30:41;19.50;99.90
22002;DHT22;11165;51.278;12.398;2022-10-16T10:39:30;19.80;99.90
22002;DHT22;11165;51.278;12.398;2022-10-16T10:54:02;19.90;99.90
22002;DHT22;11165;51.278;12.398;2022-10-16T11:01:57;20.00;99.90
22002;DHT22;11165;51.278;12.398;2022-10-16T11:07:05;20.00;99.90
22002;DHT22;11165;51.278;12.398;2022-10-16T11:09:41;20.00;99.90
22002;DHT22;11165;51.278;12.398;2022-10-16T11:15:03;20.00;99.90
22002;DHT22;11165;51.278;12.398;2022-10-16T11:17:41;20.00;99.90
22002;DHT22;11165;51.278;12.398;2022-10-16T11:20:30;19.90;99.90
22002;DHT22;11165;51.278;12.398;2022-10-16T11:23:02;19.80;99.90
22002;DHT22;11165;51.278;12.398;2022-10-16T11:25:32;19.80;99.90
22002;DHT22;11165;51.278;12.398;2022-10-16T11:28:23;19.80;99.90
22002;DHT22;11165;51.278;12.398;2022-10-16T11:30:57;19.90;99.90
22002;DHT22;11165;51.278;12.398;2022-10-16T11:33:34;19.80;99.90
22002;DHT22;11165;51.278;12.398;2022-10-16T11:36:23;19.90;99.90
22002;DHT22;11165;51.278;12.398;2022-10-16T11:44:36;20.00;99.90
22002;DHT22;11165;51.278;12.398;2022-10-16T11:49:57;20.10;99.90
22002;DHT22;11165;51.278;12.398;2022-10-16T11:52:31;20.10;99.90
22002;DHT22;11165;51.278;12.398;2022-10-16T11:55:27;20.20;99.90
22002;DHT22;11165;51.278;12.398;2022-10-16T11:58:04;20.20;99.90
22002;DHT22;11165;51.278;12.398;2022-10-16T12:00:58;20.20;99.90
22002;DHT22;11165;51.278;12.398;2022-10-16T12:09:27;20.30;99.90
22002;DHT22;11165;51.278;12.398;2022-10-16T12:11:53;20.30;99.90
22002;DHT22;11165;51.278;12.398;2022-10-16T12:14:32;20.30;99.90
22002;DHT22;11165;51.278;12.398;2022-10-16T12:22:41;20.20;99.90
22002;DHT22;11165;51.278;12.398;2022-10-16T12:30:26;20.00;99.90
22002;DHT22;11165;51.278;12.398;2022-10-16T12:33:15;19.90;99.90
22002;DHT22;11165;51.278;12.398;2022-10-16T12:35:45;19.70;99.90
22002;DHT22;11165;51.278;12.398;2022-10-16T12:38:17;19.60;99.90
22002;DHT22;11165;51.278;12.398;2022-10-16T12:40:45;19.60;99.90
22002;DHT22;11165;51.278;12.398;2022-10-16T12:43:28;19.70;99.90
22002;DHT22;11165;51.278;12.398;2022-10-16T12:48:30;19.60;99.90
22002;DHT22;11165;51.278;12.398;2022-10-16T12:50:56;19.60;99.90
22002;DHT22;11165;51.278;12.398;2022-10-16T12:53:26;19.50;99.90
22002;DHT22;11165;51.278;12.398;2022-10-16T12:56:01;19.40;99.90
22002;DHT22;11165;51.278;12.398;2022-10-16T13:01:41;19.30;99.90
22002;DHT22;11165;51.278;12.398;2022-10-16T13:13:40;19.10;99.90
22002;DHT22;11165;51.278;12.398;2022-10-16T13:18:38;19.10;99.90
22002;DHT22;11165;51.278;12.398;2022-10-16T13:21:27;19.20;99.90
22002;DHT22;11165;51.278;12.398;2022-10-16T13:29:23;19.20;99.90
22002;DHT22;11165;51.278;12.398;2022-10-16T13:31:49;19.20;99.90
22002;DHT22;11165;51.278;12.398;2022-10-16T13:34:18;19.20;99.90
22002;DHT22;11165;51.278;12.398;2022-10-16T13:36:45;19.20;99.90
22002;DHT22;11165;51.278;12.398;2022-10-16T13:39:12;19.20;99.90
22002;DHT22;11165;51.278;12.398;2022-10-16T13:41:38;19.20;99.90
22002;DHT22;11165;51.278;12.398;2022-10-16T13:44:05;19.20;99.90
22002;DHT22;11165;51.278;12.398;2022-10-16T13:46:36;19.30;99.90
22002;DHT22;11165;51.278;12.398;2022-10-16T13:49:10;19.40;99.90
22002;DHT22;11165;51.278;12.398;2022-10-16T13:51:36;19.40;99.90
22002;DHT22;11165;51.278;12.398;2022-10-16T13:54:02;19.50;99.90
22002;DHT22;11165;51.278;12.398;2022-10-16T13:56:30;19.60;99.90
22002;DHT22;11165;51.278;12.398;2022-10-16T13:59:04;19.60;99.90
22002;DHT22;11165;51.278;12.398;2022-10-16T14:01:33;19.40;99.90
22002;DHT22;11165;51.278;12.398;2022-10-16T14:04:07;19.40;99.90
22002;DHT22;11165;51.278;12.398;2022-10-16T14:06:34;19.30;99.90
22002;DHT22;11165;51.278;12.398;2022-10-16T14:09:05;19.20;99.90
22002;DHT22;11165;51.278;12.398;2022-10-16T14:11:32;19.20;99.90
22002;DHT22;11165;51.278;12.398;2022-10-16T14:13:59;19.30;99.90
22002;DHT22;11165;51.278;12.398;2022-10-16T14:16:28;19.20;99.90
22002;DHT22;11165;51.278;12.398;2022-10-16T14:19:06;19.20;99.90
22002;DHT22;11165;51.278;12.398;2022-10-16T14:21:34;19.10;99.90
22002;DHT22;11165;51.278;12.398;2022-10-16T14:24:11;19.00;99.90
22002;DHT22;11165;51.278;12.398;2022-10-16T14:26:43;19.00;99.90
22002;DHT22;11165;51.278;12.398;2022-10-16T14:29:15;19.00;99.90
22002;DHT22;11165;51.278;12.398;2022-10-16T14:31:42;19.00;99.90
22002;DHT22;11165;51.278;12.398;2022-10-16T14:34:35;18.90;99.90
22002;DHT22;11165;51.278;12.398;2022-10-16T14:40:02;19.00;99.90
22002;DHT22;11165;51.278;12.398;2022-10-16T14:42:28;19.00;99.90
22002;DHT22;11165;51.278;12.398;2022-10-16T14:44:54;19.00;99.90
22002;DHT22;11165;51.278;12.398;2022-10-16T14:47:24;19.00;99.90
22002;DHT22;11165;51.278;12.398;2022-10-16T14:49:52;19.00;99.90
22002;DHT22;11165;51.278;12.398;2022-10-16T14:52:20;19.00;99.90
22002;DHT22;11165;51.278;12.398;2022-10-16T14:54:48;19.00;99.90
22002;DHT22;11165;51.278;12.398;2022-10-16T14:57:26;18.90;99.90
22002;DHT22;11165;51.278;12.398;2022-10-16T14:59:53;19.00;99.90
22002;DHT22;11165;51.278;12.398;2022-10-16T15:02:31;19.00;99.90
22002;DHT22;11165;51.278;12.398;2022-10-16T15:05:10;18.90;99.90
22002;DHT22;11165;51.278;12.398;2022-10-16T15:07:36;19.00;99.90
22002;DHT22;11165;51.278;12.398;2022-10-16T15:10:02;19.10;99.90
22002;DHT22;11165;51.278;12.398;2022-10-16T15:12:27;19.20;99.90
22002;DHT22;11165;51.278;12.398;2022-10-16T15:14:53;19.20;99.90
22002;DHT22;11165;51.278;12.398;2022-10-16T15:17:18;19.20;99.90
22002;DHT22;11165;51.278;12.398;2022-10-16T15:19:46;19.20;99.90
22002;DHT22;11165;51.278;12.398;2022-10-16T15:22:14;19.10;99.90
22002;DHT22;11165;51.278;12.398;2022-10-16T15:24:39;19.10;99.90
22002;DHT22;11165;51.278;12.398;2022-10-16T15:27:05;19.00;99.90
22002;DHT22;11165;51.278;12.398;2022-10-16T15:29:30;18.90;99.90
22002;DHT22;11165;51.278;12.398;2022-10-16T15:31:56;18.80;99.90
22002;DHT22;11165;51.278;12.398;2022-10-16T15:34:22;18.80;99.90
22002;DHT22;11165;51.278;12.398;2022-10-16T15:36:47;18.80;99.90
22002;DHT22;11165;51.278;12.398;2022-10-16T15:39:15;18.70;99.90
22002;DHT22;11165;51.278;12.398;2022-10-16T15:41:41;18.60;99.90
22002;DHT22;11165;51.278;12.398;2022-10-16T15:44:07;18.60;99.90
22002;DHT22;11165;51.278;12.398;2022-10-16T15:46:32;18.50;99.90
22002;DHT22;11165;51.278;12.398;2022-10-16T15:48:59;18.40;99.90
22002;DHT22;11165;51.278;12.398;2022-10-16T15:51:26;18.40;99.90
22002;DHT22;11165;51.278;12.398;2022-10-16T15:53:58;18.40;99.90
22002;DHT22;11165;51.278;12.398;2022-10-16T15:56:24;18.30;99.90
22002;DHT22;11165;51.278;12.398;2022-10-16T15:58:53;18.30;99.90
22002;DHT22;11165;51.278;12.398;2022-10-16T16:01:19;18.20;99.90
22002;DHT22;11165;51.278;12.398;2022-10-16T16:03:45;18.20;99.90
22002;DHT22;11165;51.278;12.398;2022-10-16T16:06:12;18.10;99.90
22002;DHT22;11165;51.278;12.398;2022-10-16T16:08:38;18.10;99.90
22002;DHT22;11165;51.278;12.398;2022-10-16T16:11:09;18.00;99.90
22002;DHT22;11165;51.278;12.398;2022-10-16T16:13:35;18.00;99.90
22002;DHT22;11165;51.278;12.398;2022-10-16T16:16:05;17.90;99.90
22002;DHT22;11165;51.278;12.398;2022-10-16T16:18:31;17.90;99.90
22002;DHT22;11165;51.278;12.398;2022-10-16T16:20:56;17.90;99.90
22002;DHT22;11165;51.278;12.398;2022-10-16T16:23:22;17.80;99.90
22002;DHT22;11165;51.278;12.398;2022-10-16T16:26:11;17.80;99.90
22002;DHT22;11165;51.278;12.398;2022-10-16T16:28:38;17.70;99.90
22002;DHT22;11165;51.278;12.398;2022-10-16T16:31:05;17.60;99.90
22002;DHT22;11165;51.278;12.398;2022-10-16T16:33:31;17.50;99.90
22002;DHT22;11165;51.278;12.398;2022-10-16T16:36:01;17.50;99.90
22002;DHT22;11165;51.278;12.398;2022-10-16T16:38:27;17.40;99.90
22002;DHT22;11165;51.278;12.398;2022-10-16T16:40:53;17.30;99.90
22002;DHT22;11165;51.278;12.398;2022-10-16T16:43:22;17.30;99.90
22002;DHT22;11165;51.278;12.398;2022-10-16T16:45:48;17.20;99.90
22002;DHT22;11165;51.278;12.398;2022-10-16T16:48:13;17.30;99.90
22002;DHT22;11165;51.278;12.398;2022-10-16T16:50:39;17.40;99.90
22002;DHT22;11165;51.278;12.398;2022-10-16T16:53:04;17.30;99.90
22002;DHT22;11165;51.278;12.398;2022-10-16T16:55:30;17.30;99.90
22002;DHT22;11165;51.278;12.398;2022-10-16T16:57:55;17.30;99.90
22002;DHT22;11165;51.278;12.398;2022-10-16T17:00:22;17.20;99.90
22002;DHT22;11165;51.278;12.398;2022-10-16T17:02:50;17.20;99.90
22002;DHT22;11165;51.278;12.398;2022-10-16T17:05:17;17.20;99.90
22002;DHT22;11165;51.278;12.398;2022-10-16T17:07:43;17.10;99.90
22002;DHT22;11165;51.278;12.398;2022-10-16T17:10:09;17.10;99.90
22002;DHT22;11165;51.278;12.398;2022-10-16T17:12:34;17.10;99.90
22002;DHT22;11165;51.278;12.398;2022-10-16T17:15:00;17.10;99.90
22002;DHT22;11165;51.278;12.398;2022-10-16T17:17:26;17.00;99.90
22002;DHT22;11165;51.278;12.398;2022-10-16T17:19:51;16.80;99.90
22002;DHT22;11165;51.278;12.398;2022-10-16T17:22:18;16.70;99.90
22002;DHT22;11165;51.278;12.398;2022-10-16T17:24:44;16.70;99.90
22002;DHT22;11165;51.278;12.398;2022-10-16T17:27:15;16.60;99.90
22002;DHT22;11165;51.278;12.398;2022-10-16T17:29:40;16.60;99.90